sensor_id;sensor_type;location;lat;lon;timestamp;P1;durP1;ratioP1;P2;durP2;ratioP2
34152;SDS011;20426;48.372;10.888;2024-02-26T00:00:12;2.97;;;2.10;;
34152;SDS011;20426;48.372;10.888;2024-02-26T00:00:43;2.83;;;1.92;;
34152;SDS011;20426;48.372;10.888;2024-02-26T00:01:16;3.47;;;2.00;;
34152;SDS011;20426;48.372;10.888;2024-02-26T00:01:47;2.35;;;1.65;;
34152;SDS011;20426;48.372;10.888;2024-02-26T00:02:18;2.40;;;1.80;;
34152;SDS011;20426;48.372;10.888;2024-02-26T00:02:48;3.22;;;1.80;;
34152;SDS011;20426;48.372;10.888;2024-02-26T00:03:19;2.22;;;1.67;;
34152;SDS011;20426;48.372;10.888;2024-02-26T00:03:50;2.35;;;1.65;;
34152;SDS011;20426;48.372;10.888;2024-02-26T00:04:22;2.83;;;1.98;;
34152;SDS011;20426;48.372;10.888;2024-02-26T00:04:52;2.10;;;1.60;;
34152;SDS011;20426;48.372;10.888;2024-02-26T00:05:23;2.53;;;1.60;;
34152;SDS011;20426;48.372;10.888;2024-02-26T00:05:54;2.38;;;1.85;;
34152;SDS011;20426;48.372;10.888;2024-02-26T00:06:26;2.15;;;1.70;;
34152;SDS011;20426;48.372;10.888;2024-02-26T00:06:56;4.28;;;2.40;;
34152;SDS011;20426;48.372;10.888;2024-02-26T00:07:28;1.98;;;1.83;;
34152;SDS011;20426;48.372;10.888;2024-02-26T00:07:58;4.07;;;2.10;;
34152;SDS011;20426;48.372;10.888;2024-02-26T00:08:29;2.90;;;1.77;;
34152;SDS011;20426;48.372;10.888;2024-02-26T00:09:00;2.13;;;1.80;;
34152;SDS011;20426;48.372;10.888;2024-02-26T00:09:32;2.53;;;1.90;;
34152;SDS011;20426;48.372;10.888;2024-02-26T00:10:06;2.28;;;1.73;;
34152;SDS011;20426;48.372;10.888;2024-02-26T00:10:37;1.55;;;1.45;;
34152;SDS011;20426;48.372;10.888;2024-02-26T00:11:08;1.75;;;1.65;;
34152;SDS011;20426;48.372;10.888;2024-02-26T00:11:38;3.45;;;1.60;;
34152;SDS011;20426;48.372;10.888;2024-02-26T00:12:09;3.17;;;1.98;;
34152;SDS011;20426;48.372;10.888;2024-02-26T00:12:40;2.38;;;1.50;;
34152;SDS011;20426;48.372;10.888;2024-02-26T00:13:11;2.75;;;2.00;;
34152;SDS011;20426;48.372;10.888;2024-02-26T00:13:41;2.53;;;1.90;;
34152;SDS011;20426;48.372;10.888;2024-02-26T00:14:12;2.92;;;1.95;;
34152;SDS011;20426;48.372;10.888;2024-02-26T00:14:43;3.08;;;1.60;;
34152;SDS011;20426;48.372;10.888;2024-02-26T00:15:15;2.00;;;1.80;;
34152;SDS011;20426;48.372;10.888;2024-02-26T00:15:45;2.35;;;2.15;;
34152;SDS011;20426;48.372;10.888;2024-02-26T00:16:16;2.83;;;1.45;;
34152;SDS011;20426;48.372;10.888;2024-02-26T00:16:47;2.95;;;1.80;;
34152;SDS011;20426;48.372;10.888;2024-02-26T00:17:18;3.03;;;2.03;;
34152;SDS011;20426;48.372;10.888;2024-02-26T00:17:48;2.50;;;1.50;;
34152;SDS011;20426;48.372;10.888;2024-02-26T00:18:19;1.98;;;1.63;;
34152;SDS011;20426;48.372;10.888;2024-02-26T00:18:50;2.55;;;1.73;;
34152;SDS011;20426;48.372;10.888;2024-02-26T00:19:20;2.30;;;1.60;;
34152;SDS011;20426;48.372;10.888;2024-02-26T00:19:51;2.10;;;1.73;;
34152;SDS011;20426;48.372;10.888;2024-02-26T00:20:23;1.88;;;1.60;;
34152;SDS011;20426;48.372;10.888;2024-02-26T00:20:53;2.85;;;1.90;;
34152;SDS011;20426;48.372;10.888;2024-02-26T00:21:24;2.83;;;1.92;;
34152;SDS011;20426;48.372;10.888;2024-02-26T00:21:55;2.42;;;1.52;;
34152;SDS011;20426;48.372;10.888;2024-02-26T00:22:25;2.28;;;1.83;;
34152;SDS011;20426;48.372;10.888;2024-02-26T00:22:56;4.38;;;1.83;;
34152;SDS011;20426;48.372;10.888;2024-02-26T00:23:27;3.05;;;2.15;;
34152;SDS011;20426;48.372;10.888;2024-02-26T00:23:58;2.63;;;1.73;;
34152;SDS011;20426;48.372;10.888;2024-02-26T00:24:29;2.42;;;1.88;;
34152;SDS011;20426;48.372;10.888;2024-02-26T00:24:59;2.00;;;1.50;;
34152;SDS011;20426;48.372;10.888;2024-02-26T00:25:30;2.67;;;1.70;;
34152;SDS011;20426;48.372;10.888;2024-02-26T00:26:01;1.85;;;1.45;;
34152;SDS011;20426;48.372;10.888;2024-02-26T00:26:33;2.35;;;1.77;;
34152;SDS011;20426;48.372;10.888;2024-02-26T00:27:04;2.35;;;1.92;;
34152;SDS011;20426;48.372;10.888;2024-02-26T00:27:35;2.10;;;1.58;;
34152;SDS011;20426;48.372;10.888;2024-02-26T00:28:06;2.00;;;1.70;;
34152;SDS011;20426;48.372;10.888;2024-02-26T00:28:36;2.40;;;1.90;;
34152;SDS011;20426;48.372;10.888;2024-02-26T00:29:07;1.77;;;1.60;;
34152;SDS011;20426;48.372;10.888;2024-02-26T00:29:38;3.63;;;2.08;;
34152;SDS011;20426;48.372;10.888;2024-02-26T00:30:09;1.85;;;1.65;;
34152;SDS011;20426;48.372;10.888;2024-02-26T00:30:40;2.10;;;1.90;;
34152;SDS011;20426;48.372;10.888;2024-02-26T00:31:10;3.22;;;1.95;;
34152;SDS011;20426;48.372;10.888;2024-02-26T00:31:41;2.78;;;1.67;;
34152;SDS011;20426;48.372;10.888;2024-02-26T00:32:12;2.33;;;1.60;;
34152;SDS011;20426;48.372;10.888;2024-02-26T00:32:43;2.42;;;1.85;;
34152;SDS011;20426;48.372;10.888;2024-02-26T00:33:16;3.05;;;1.80;;
34152;SDS011;20426;48.372;10.888;2024-02-26T00:33:47;2.58;;;1.70;;
34152;SDS011;20426;48.372;10.888;2024-02-26T00:34:18;2.80;;;2.03;;
34152;SDS011;20426;48.372;10.888;2024-02-26T00:34:48;2.30;;;1.80;;
34152;SDS011;20426;48.372;10.888;2024-02-26T00:35:20;2.75;;;1.80;;
34152;SDS011;20426;48.372;10.888;2024-02-26T00:35:51;3.22;;;2.00;;
34152;SDS011;20426;48.372;10.888;2024-02-26T00:36:21;2.50;;;1.67;;
34152;SDS011;20426;48.372;10.888;2024-02-26T00:36:52;2.53;;;2.08;;
34152;SDS011;20426;48.372;10.888;2024-02-26T00:37:23;4.30;;;2.08;;
34152;SDS011;20426;48.372;10.888;2024-02-26T00:37:53;2.95;;;2.10;;
34152;SDS011;20426;48.372;10.888;2024-02-26T00:38:24;2.70;;;2.00;;
34152;SDS011;20426;48.372;10.888;2024-02-26T00:38:55;4.20;;;2.08;;
34152;SDS011;20426;48.372;10.888;2024-02-26T00:39:26;2.60;;;1.67;;
34152;SDS011;20426;48.372;10.888;2024-02-26T00:39:56;3.00;;;1.80;;
34152;SDS011;20426;48.372;10.888;2024-02-26T00:40:27;2.78;;;1.83;;
34152;SDS011;20426;48.372;10.888;2024-02-26T00:40:58;3.47;;;1.83;;
34152;SDS011;20426;48.372;10.888;2024-02-26T00:41:29;3.38;;;1.83;;
34152;SDS011;20426;48.372;10.888;2024-02-26T00:41:59;4.10;;;2.13;;
34152;SDS011;20426;48.372;10.888;2024-02-26T00:42:30;2.60;;;1.55;;
34152;SDS011;20426;48.372;10.888;2024-02-26T00:43:01;1.88;;;1.55;;
34152;SDS011;20426;48.372;10.888;2024-02-26T00:43:31;3.17;;;1.90;;
34152;SDS011;20426;48.372;10.888;2024-02-26T00:44:02;2.85;;;2.05;;
34152;SDS011;20426;48.372;10.888;2024-02-26T00:44:33;3.78;;;1.92;;
34152;SDS011;20426;48.372;10.888;2024-02-26T00:45:04;3.60;;;1.63;;
34152;SDS011;20426;48.372;10.888;2024-02-26T00:45:35;1.83;;;1.58;;
34152;SDS011;20426;48.372;10.888;2024-02-26T00:46:05;2.63;;;1.98;;
34152;SDS011;20426;48.372;10.888;2024-02-26T00:46:36;2.30;;;1.70;;
34152;SDS011;20426;48.372;10.888;2024-02-26T00:47:07;4.15;;;1.80;;
34152;SDS011;20426;48.372;10.888;2024-02-26T00:47:38;2.65;;;1.80;;
34152;SDS011;20426;48.372;10.888;2024-02-26T00:48:11;3.65;;;1.85;;
34152;SDS011;20426;48.372;10.888;2024-02-26T00:48:43;2.53;;;2.08;;
34152;SDS011;20426;48.372;10.888;2024-02-26T00:49:14;3.53;;;2.20;;
34152;SDS011;20426;48.372;10.888;2024-02-26T00:49:45;3.13;;;2.05;;
34152;SDS011;20426;48.372;10.888;2024-02-26T00:50:15;2.17;;;1.63;;
34152;SDS011;20426;48.372;10.888;2024-02-26T00:50:46;3.67;;;2.15;;
34152;SDS011;20426;48.372;10.888;2024-02-26T00:51:17;1.77;;;1.60;;
34152;SDS011;20426;48.372;10.888;2024-02-26T00:51:48;2.95;;;1.90;;
34152;SDS011;20426;48.372;10.888;2024-02-26T00:52:18;2.45;;;1.95;;
34152;SDS011;20426;48.372;10.888;2024-02-26T00:52:49;3.67;;;1.90;;
34152;SDS011;20426;48.372;10.888;2024-02-26T00:53:20;2.33;;;1.98;;
34152;SDS011;20426;48.372;10.888;2024-02-26T00:53:50;3.55;;;2.20;;
34152;SDS011;20426;48.372;10.888;2024-02-26T00:54:21;4.28;;;2.42;;
34152;SDS011;20426;48.372;10.888;2024-02-26T00:54:52;4.00;;;2.22;;
34152;SDS011;20426;48.372;10.888;2024-02-26T00:55:22;2.80;;;2.00;;
34152;SDS011;20426;48.372;10.888;2024-02-26T00:55:53;3.35;;;2.28;;
34152;SDS011;20426;48.372;10.888;2024-02-26T00:56:24;2.50;;;1.83;;
34152;SDS011;20426;48.372;10.888;2024-02-26T00:56:55;2.95;;;2.10;;
34152;SDS011;20426;48.372;10.888;2024-02-26T00:57:25;2.47;;;1.83;;
34152;SDS011;20426;48.372;10.888;2024-02-26T00:57:56;2.40;;;1.90;;
34152;SDS011;20426;48.372;10.888;2024-02-26T00:58:27;2.03;;;1.80;;
34152;SDS011;20426;48.372;10.888;2024-02-26T00:58:58;3.92;;;2.13;;
34152;SDS011;20426;48.372;10.888;2024-02-26T00:59:29;2.60;;;2.03;;
34152;SDS011;20426;48.372;10.888;2024-02-26T00:59:59;2.78;;;2.28;;
34152;SDS011;20426;48.372;10.888;2024-02-26T01:00:30;3.08;;;2.15;;
34152;SDS011;20426;48.372;10.888;2024-02-26T01:01:01;3.88;;;2.00;;
34152;SDS011;20426;48.372;10.888;2024-02-26T01:01:33;2.83;;;2.00;;
34152;SDS011;20426;48.372;10.888;2024-02-26T01:02:03;2.72;;;2.00;;
34152;SDS011;20426;48.372;10.888;2024-02-26T01:02:36;2.25;;;2.05;;
34152;SDS011;20426;48.372;10.888;2024-02-26T01:03:08;2.63;;;1.98;;
34152;SDS011;20426;48.372;10.888;2024-02-26T01:03:40;2.67;;;2.30;;
34152;SDS011;20426;48.372;10.888;2024-02-26T01:04:11;2.80;;;2.20;;
34152;SDS011;20426;48.372;10.888;2024-02-26T01:04:42;3.08;;;2.15;;
34152;SDS011;20426;48.372;10.888;2024-02-26T01:05:14;2.53;;;2.08;;
34152;SDS011;20426;48.372;10.888;2024-02-26T01:05:46;3.72;;;2.35;;
34152;SDS011;20426;48.372;10.888;2024-02-26T01:06:17;4.70;;;2.58;;
34152;SDS011;20426;48.372;10.888;2024-02-26T01:06:48;3.08;;;2.03;;
34152;SDS011;20426;48.372;10.888;2024-02-26T01:07:19;1.90;;;1.70;;
34152;SDS011;20426;48.372;10.888;2024-02-26T01:07:49;3.92;;;2.22;;
34152;SDS011;20426;48.372;10.888;2024-02-26T01:08:20;5.47;;;2.45;;
34152;SDS011;20426;48.372;10.888;2024-02-26T01:08:51;2.78;;;2.15;;
34152;SDS011;20426;48.372;10.888;2024-02-26T01:09:21;3.03;;;2.22;;
34152;SDS011;20426;48.372;10.888;2024-02-26T01:09:52;3.45;;;2.42;;
34152;SDS011;20426;48.372;10.888;2024-02-26T01:10:23;2.08;;;1.83;;
34152;SDS011;20426;48.372;10.888;2024-02-26T01:10:53;3.80;;;2.33;;
34152;SDS011;20426;48.372;10.888;2024-02-26T01:11:24;5.20;;;2.17;;
34152;SDS011;20426;48.372;10.888;2024-02-26T01:11:55;2.47;;;1.70;;
34152;SDS011;20426;48.372;10.888;2024-02-26T01:12:25;2.38;;;2.15;;
34152;SDS011;20426;48.372;10.888;2024-02-26T01:12:56;3.80;;;2.00;;
34152;SDS011;20426;48.372;10.888;2024-02-26T01:13:27;4.10;;;2.03;;
34152;SDS011;20426;48.372;10.888;2024-02-26T01:13:57;2.75;;;2.03;;
34152;SDS011;20426;48.372;10.888;2024-02-26T01:14:28;3.60;;;2.00;;
34152;SDS011;20426;48.372;10.888;2024-02-26T01:14:59;3.63;;;1.80;;
34152;SDS011;20426;48.372;10.888;2024-02-26T01:15:30;2.65;;;1.85;;
34152;SDS011;20426;48.372;10.888;2024-02-26T01:16:01;3.95;;;2.00;;
34152;SDS011;20426;48.372;10.888;2024-02-26T01:16:32;2.25;;;2.00;;
34152;SDS011;20426;48.372;10.888;2024-02-26T01:17:02;2.45;;;1.75;;
34152;SDS011;20426;48.372;10.888;2024-02-26T01:17:33;2.70;;;1.90;;
34152;SDS011;20426;48.372;10.888;2024-02-26T01:18:04;2.75;;;1.90;;
34152;SDS011;20426;48.372;10.888;2024-02-26T01:18:34;4.13;;;2.30;;
34152;SDS011;20426;48.372;10.888;2024-02-26T01:19:05;2.90;;;1.88;;
34152;SDS011;20426;48.372;10.888;2024-02-26T01:19:36;4.72;;;2.17;;
34152;SDS011;20426;48.372;10.888;2024-02-26T01:20:07;2.20;;;1.98;;
34152;SDS011;20426;48.372;10.888;2024-02-26T01:20:39;2.72;;;1.92;;
34152;SDS011;20426;48.372;10.888;2024-02-26T01:21:09;2.53;;;2.03;;
34152;SDS011;20426;48.372;10.888;2024-02-26T01:21:40;2.92;;;2.20;;
34152;SDS011;20426;48.372;10.888;2024-02-26T01:22:11;1.98;;;1.77;;
34152;SDS011;20426;48.372;10.888;2024-02-26T01:22:42;2.67;;;1.98;;
34152;SDS011;20426;48.372;10.888;2024-02-26T01:23:13;2.72;;;2.30;;
34152;SDS011;20426;48.372;10.888;2024-02-26T01:23:44;3.53;;;2.42;;
34152;SDS011;20426;48.372;10.888;2024-02-26T01:24:14;2.75;;;2.15;;
34152;SDS011;20426;48.372;10.888;2024-02-26T01:24:45;2.80;;;1.92;;
34152;SDS011;20426;48.372;10.888;2024-02-26T01:25:16;2.40;;;2.08;;
34152;SDS011;20426;48.372;10.888;2024-02-26T01:25:48;2.45;;;1.90;;
34152;SDS011;20426;48.372;10.888;2024-02-26T01:26:18;2.28;;;2.00;;
34152;SDS011;20426;48.372;10.888;2024-02-26T01:26:49;4.05;;;2.42;;
34152;SDS011;20426;48.372;10.888;2024-02-26T01:27:20;2.88;;;1.95;;
34152;SDS011;20426;48.372;10.888;2024-02-26T01:27:50;2.70;;;2.05;;
34152;SDS011;20426;48.372;10.888;2024-02-26T01:28:21;2.80;;;1.95;;
34152;SDS011;20426;48.372;10.888;2024-02-26T01:28:52;2.95;;;2.03;;
34152;SDS011;20426;48.372;10.888;2024-02-26T01:29:23;2.67;;;2.08;;
34152;SDS011;20426;48.372;10.888;2024-02-26T01:29:53;3.00;;;1.80;;
34152;SDS011;20426;48.372;10.888;2024-02-26T01:30:24;3.38;;;2.30;;
34152;SDS011;20426;48.372;10.888;2024-02-26T01:30:55;2.85;;;2.33;;
34152;SDS011;20426;48.372;10.888;2024-02-26T01:31:25;3.03;;;2.22;;
34152;SDS011;20426;48.372;10.888;2024-02-26T01:31:56;3.20;;;1.88;;
34152;SDS011;20426;48.372;10.888;2024-02-26T01:32:27;2.78;;;1.95;;
34152;SDS011;20426;48.372;10.888;2024-02-26T01:32:57;3.45;;;2.05;;
34152;SDS011;20426;48.372;10.888;2024-02-26T01:33:28;2.50;;;1.98;;
34152;SDS011;20426;48.372;10.888;2024-02-26T01:33:58;3.03;;;2.10;;
34152;SDS011;20426;48.372;10.888;2024-02-26T01:34:30;2.47;;;1.95;;
34152;SDS011;20426;48.372;10.888;2024-02-26T01:35:01;2.53;;;1.92;;
34152;SDS011;20426;48.372;10.888;2024-02-26T01:35:37;3.85;;;1.98;;
34152;SDS011;20426;48.372;10.888;2024-02-26T01:36:08;3.45;;;2.38;;
34152;SDS011;20426;48.372;10.888;2024-02-26T01:36:39;3.35;;;2.15;;
34152;SDS011;20426;48.372;10.888;2024-02-26T01:37:09;2.53;;;1.90;;
34152;SDS011;20426;48.372;10.888;2024-02-26T01:37:40;2.70;;;2.20;;
34152;SDS011;20426;48.372;10.888;2024-02-26T01:38:11;3.45;;;2.33;;
34152;SDS011;20426;48.372;10.888;2024-02-26T01:38:42;4.45;;;2.50;;
34152;SDS011;20426;48.372;10.888;2024-02-26T01:39:13;5.45;;;2.30;;
34152;SDS011;20426;48.372;10.888;2024-02-26T01:39:43;4.80;;;2.40;;
34152;SDS011;20426;48.372;10.888;2024-02-26T01:40:14;3.40;;;2.13;;
34152;SDS011;20426;48.372;10.888;2024-02-26T01:40:49;2.95;;;2.13;;
34152;SDS011;20426;48.372;10.888;2024-02-26T01:41:20;2.92;;;2.00;;
34152;SDS011;20426;48.372;10.888;2024-02-26T01:41:51;3.03;;;2.30;;
34152;SDS011;20426;48.372;10.888;2024-02-26T01:42:22;3.10;;;2.00;;
34152;SDS011;20426;48.372;10.888;2024-02-26T01:42:52;3.58;;;2.20;;
34152;SDS011;20426;48.372;10.888;2024-02-26T01:43:23;3.33;;;2.42;;
34152;SDS011;20426;48.372;10.888;2024-02-26T01:43:54;2.88;;;2.03;;
34152;SDS011;20426;48.372;10.888;2024-02-26T01:44:26;3.80;;;2.15;;
34152;SDS011;20426;48.372;10.888;2024-02-26T01:44:56;3.03;;;2.15;;
34152;SDS011;20426;48.372;10.888;2024-02-26T01:45:27;3.60;;;2.28;;
34152;SDS011;20426;48.372;10.888;2024-02-26T01:45:58;2.78;;;2.33;;
34152;SDS011;20426;48.372;10.888;2024-02-26T01:46:29;2.60;;;2.13;;
34152;SDS011;20426;48.372;10.888;2024-02-26T01:47:01;3.45;;;2.00;;
34152;SDS011;20426;48.372;10.888;2024-02-26T01:47:33;3.58;;;2.60;;
34152;SDS011;20426;48.372;10.888;2024-02-26T01:48:04;4.13;;;2.40;;
34152;SDS011;20426;48.372;10.888;2024-02-26T01:48:35;3.80;;;2.28;;
34152;SDS011;20426;48.372;10.888;2024-02-26T01:49:06;4.38;;;2.63;;
34152;SDS011;20426;48.372;10.888;2024-02-26T01:49:39;3.28;;;2.08;;
34152;SDS011;20426;48.372;10.888;2024-02-26T01:50:10;4.38;;;2.58;;
34152;SDS011;20426;48.372;10.888;2024-02-26T01:50:41;4.93;;;2.85;;
34152;SDS011;20426;48.372;10.888;2024-02-26T01:51:12;3.80;;;2.35;;
34152;SDS011;20426;48.372;10.888;2024-02-26T01:51:45;4.93;;;2.67;;
34152;SDS011;20426;48.372;10.888;2024-02-26T01:52:16;2.65;;;1.98;;
34152;SDS011;20426;48.372;10.888;2024-02-26T01:52:48;3.65;;;2.42;;
34152;SDS011;20426;48.372;10.888;2024-02-26T01:53:20;2.70;;;1.90;;
34152;SDS011;20426;48.372;10.888;2024-02-26T01:53:51;2.90;;;2.30;;
34152;SDS011;20426;48.372;10.888;2024-02-26T01:54:22;2.90;;;2.10;;
34152;SDS011;20426;48.372;10.888;2024-02-26T01:54:53;2.97;;;2.30;;
34152;SDS011;20426;48.372;10.888;2024-02-26T01:55:23;2.90;;;2.05;;
34152;SDS011;20426;48.372;10.888;2024-02-26T01:55:56;2.90;;;2.13;;
34152;SDS011;20426;48.372;10.888;2024-02-26T01:56:27;3.17;;;2.22;;
34152;SDS011;20426;48.372;10.888;2024-02-26T01:57:00;3.58;;;2.50;;
34152;SDS011;20426;48.372;10.888;2024-02-26T01:57:33;2.72;;;2.15;;
34152;SDS011;20426;48.372;10.888;2024-02-26T01:58:04;3.10;;;2.10;;
34152;SDS011;20426;48.372;10.888;2024-02-26T01:58:35;3.75;;;2.67;;
34152;SDS011;20426;48.372;10.888;2024-02-26T01:59:06;4.35;;;2.38;;
34152;SDS011;20426;48.372;10.888;2024-02-26T01:59:38;2.30;;;1.92;;
34152;SDS011;20426;48.372;10.888;2024-02-26T02:00:10;4.22;;;2.60;;
34152;SDS011;20426;48.372;10.888;2024-02-26T02:00:42;3.50;;;2.28;;
34152;SDS011;20426;48.372;10.888;2024-02-26T02:01:13;3.15;;;2.55;;
34152;SDS011;20426;48.372;10.888;2024-02-26T02:01:46;3.42;;;2.15;;
34152;SDS011;20426;48.372;10.888;2024-02-26T02:02:22;3.70;;;2.20;;
34152;SDS011;20426;48.372;10.888;2024-02-26T02:02:52;3.88;;;2.22;;
34152;SDS011;20426;48.372;10.888;2024-02-26T02:03:25;4.28;;;2.55;;
34152;SDS011;20426;48.372;10.888;2024-02-26T02:03:56;3.60;;;2.53;;
34152;SDS011;20426;48.372;10.888;2024-02-26T02:04:28;3.25;;;2.20;;
34152;SDS011;20426;48.372;10.888;2024-02-26T02:05:00;5.20;;;2.92;;
34152;SDS011;20426;48.372;10.888;2024-02-26T02:05:31;6.05;;;2.63;;
34152;SDS011;20426;48.372;10.888;2024-02-26T02:06:03;2.72;;;2.05;;
34152;SDS011;20426;48.372;10.888;2024-02-26T02:06:34;4.93;;;2.47;;
34152;SDS011;20426;48.372;10.888;2024-02-26T02:07:06;2.72;;;2.05;;
34152;SDS011;20426;48.372;10.888;2024-02-26T02:07:37;4.10;;;2.50;;
34152;SDS011;20426;48.372;10.888;2024-02-26T02:08:08;3.78;;;2.33;;
34152;SDS011;20426;48.372;10.888;2024-02-26T02:08:41;4.25;;;2.60;;
34152;SDS011;20426;48.372;10.888;2024-02-26T02:09:12;2.88;;;2.15;;
34152;SDS011;20426;48.372;10.888;2024-02-26T02:09:43;3.10;;;2.42;;
34152;SDS011;20426;48.372;10.888;2024-02-26T02:10:14;2.25;;;2.00;;
34152;SDS011;20426;48.372;10.888;2024-02-26T02:10:46;3.72;;;2.13;;
34152;SDS011;20426;48.372;10.888;2024-02-26T02:11:19;3.88;;;2.47;;
34152;SDS011;20426;48.372;10.888;2024-02-26T02:11:49;3.67;;;2.75;;
34152;SDS011;20426;48.372;10.888;2024-02-26T02:12:21;3.83;;;2.38;;
34152;SDS011;20426;48.372;10.888;2024-02-26T02:12:52;3.72;;;2.47;;
34152;SDS011;20426;48.372;10.888;2024-02-26T02:13:23;5.05;;;2.65;;
34152;SDS011;20426;48.372;10.888;2024-02-26T02:13:53;4.03;;;2.53;;
34152;SDS011;20426;48.372;10.888;2024-02-26T02:14:24;2.88;;;2.13;;
34152;SDS011;20426;48.372;10.888;2024-02-26T02:14:55;5.22;;;2.95;;
34152;SDS011;20426;48.372;10.888;2024-02-26T02:15:26;3.47;;;2.20;;
34152;SDS011;20426;48.372;10.888;2024-02-26T02:15:57;3.55;;;2.58;;
34152;SDS011;20426;48.372;10.888;2024-02-26T02:16:28;4.78;;;2.20;;
34152;SDS011;20426;48.372;10.888;2024-02-26T02:16:59;5.13;;;2.63;;
34152;SDS011;20426;48.372;10.888;2024-02-26T02:17:30;3.83;;;2.35;;
34152;SDS011;20426;48.372;10.888;2024-02-26T02:18:01;4.03;;;2.80;;
34152;SDS011;20426;48.372;10.888;2024-02-26T02:18:31;3.47;;;2.60;;
34152;SDS011;20426;48.372;10.888;2024-02-26T02:19:03;2.92;;;2.00;;
34152;SDS011;20426;48.372;10.888;2024-02-26T02:19:33;3.97;;;2.35;;
34152;SDS011;20426;48.372;10.888;2024-02-26T02:20:07;3.10;;;2.53;;
34152;SDS011;20426;48.372;10.888;2024-02-26T02:20:50;3.85;;;2.80;;
34152;SDS011;20426;48.372;10.888;2024-02-26T02:21:21;4.03;;;2.38;;
34152;SDS011;20426;48.372;10.888;2024-02-26T02:21:52;4.38;;;2.63;;
34152;SDS011;20426;48.372;10.888;2024-02-26T02:22:22;4.43;;;2.75;;
34152;SDS011;20426;48.372;10.888;2024-02-26T02:23:29;4.57;;;2.70;;
34152;SDS011;20426;48.372;10.888;2024-02-26T02:24:00;5.20;;;2.70;;
34152;SDS011;20426;48.372;10.888;2024-02-26T02:24:31;5.07;;;2.83;;
34152;SDS011;20426;48.372;10.888;2024-02-26T02:25:01;4.78;;;3.00;;
34152;SDS011;20426;48.372;10.888;2024-02-26T02:25:33;3.90;;;2.97;;
34152;SDS011;20426;48.372;10.888;2024-02-26T02:26:04;4.53;;;2.75;;
34152;SDS011;20426;48.372;10.888;2024-02-26T02:26:35;4.32;;;3.05;;
34152;SDS011;20426;48.372;10.888;2024-02-26T02:27:06;5.80;;;2.83;;
34152;SDS011;20426;48.372;10.888;2024-02-26T02:27:36;3.78;;;2.90;;
34152;SDS011;20426;48.372;10.888;2024-02-26T02:28:08;3.72;;;2.35;;
34152;SDS011;20426;48.372;10.888;2024-02-26T02:28:39;3.97;;;2.63;;
34152;SDS011;20426;48.372;10.888;2024-02-26T02:29:10;4.20;;;2.40;;
34152;SDS011;20426;48.372;10.888;2024-02-26T02:29:42;2.88;;;2.35;;
34152;SDS011;20426;48.372;10.888;2024-02-26T02:30:13;3.97;;;2.88;;
34152;SDS011;20426;48.372;10.888;2024-02-26T02:30:46;3.97;;;3.15;;
34152;SDS011;20426;48.372;10.888;2024-02-26T02:31:17;4.60;;;3.08;;
34152;SDS011;20426;48.372;10.888;2024-02-26T02:31:48;6.57;;;3.03;;
34152;SDS011;20426;48.372;10.888;2024-02-26T02:32:19;5.32;;;2.78;;
34152;SDS011;20426;48.372;10.888;2024-02-26T02:32:50;6.22;;;3.70;;
34152;SDS011;20426;48.372;10.888;2024-02-26T02:33:21;4.25;;;2.72;;
34152;SDS011;20426;48.372;10.888;2024-02-26T02:33:53;4.15;;;2.70;;
34152;SDS011;20426;48.372;10.888;2024-02-26T02:34:24;3.22;;;2.70;;
34152;SDS011;20426;48.372;10.888;2024-02-26T02:34:55;3.28;;;2.33;;
34152;SDS011;20426;48.372;10.888;2024-02-26T02:35:26;3.88;;;2.78;;
34152;SDS011;20426;48.372;10.888;2024-02-26T02:35:57;4.50;;;2.95;;
34152;SDS011;20426;48.372;10.888;2024-02-26T02:36:28;4.82;;;2.88;;
34152;SDS011;20426;48.372;10.888;2024-02-26T02:36:59;5.30;;;3.13;;
34152;SDS011;20426;48.372;10.888;2024-02-26T02:37:30;4.65;;;2.55;;
34152;SDS011;20426;48.372;10.888;2024-02-26T02:38:00;2.83;;;2.30;;
34152;SDS011;20426;48.372;10.888;2024-02-26T02:38:31;3.72;;;2.58;;
34152;SDS011;20426;48.372;10.888;2024-02-26T02:39:04;4.18;;;2.45;;
34152;SDS011;20426;48.372;10.888;2024-02-26T02:39:34;3.50;;;2.65;;
34152;SDS011;20426;48.372;10.888;2024-02-26T02:40:05;4.55;;;2.67;;
34152;SDS011;20426;48.372;10.888;2024-02-26T02:40:36;5.43;;;2.42;;
34152;SDS011;20426;48.372;10.888;2024-02-26T02:41:07;3.72;;;2.83;;
34152;SDS011;20426;48.372;10.888;2024-02-26T02:41:37;3.30;;;2.47;;
34152;SDS011;20426;48.372;10.888;2024-02-26T02:42:08;5.18;;;2.55;;
34152;SDS011;20426;48.372;10.888;2024-02-26T02:42:39;5.00;;;2.97;;
34152;SDS011;20426;48.372;10.888;2024-02-26T02:43:10;3.50;;;2.75;;
34152;SDS011;20426;48.372;10.888;2024-02-26T02:43:40;3.88;;;2.90;;
34152;SDS011;20426;48.372;10.888;2024-02-26T02:44:11;4.40;;;2.83;;
34152;SDS011;20426;48.372;10.888;2024-02-26T02:44:42;5.60;;;3.17;;
34152;SDS011;20426;48.372;10.888;2024-02-26T02:45:14;4.68;;;2.70;;
34152;SDS011;20426;48.372;10.888;2024-02-26T02:45:45;4.95;;;3.15;;
34152;SDS011;20426;48.372;10.888;2024-02-26T02:46:16;3.38;;;2.63;;
34152;SDS011;20426;48.372;10.888;2024-02-26T02:46:47;5.38;;;2.75;;
34152;SDS011;20426;48.372;10.888;2024-02-26T02:47:18;3.70;;;2.90;;
34152;SDS011;20426;48.372;10.888;2024-02-26T02:47:49;3.15;;;2.55;;
34152;SDS011;20426;48.372;10.888;2024-02-26T02:48:19;4.35;;;3.15;;
34152;SDS011;20426;48.372;10.888;2024-02-26T02:48:50;3.17;;;2.25;;
34152;SDS011;20426;48.372;10.888;2024-02-26T02:49:21;4.30;;;2.58;;
34152;SDS011;20426;48.372;10.888;2024-02-26T02:49:53;3.50;;;2.97;;
34152;SDS011;20426;48.372;10.888;2024-02-26T02:50:24;4.32;;;3.08;;
34152;SDS011;20426;48.372;10.888;2024-02-26T02:50:55;3.88;;;2.75;;
34152;SDS011;20426;48.372;10.888;2024-02-26T02:51:26;4.35;;;2.90;;
34152;SDS011;20426;48.372;10.888;2024-02-26T02:51:57;4.40;;;2.67;;
34152;SDS011;20426;48.372;10.888;2024-02-26T02:52:27;3.67;;;2.60;;
34152;SDS011;20426;48.372;10.888;2024-02-26T02:52:58;3.95;;;2.70;;
34152;SDS011;20426;48.372;10.888;2024-02-26T02:53:29;3.78;;;2.90;;
34152;SDS011;20426;48.372;10.888;2024-02-26T02:53:59;3.63;;;2.40;;
34152;SDS011;20426;48.372;10.888;2024-02-26T02:54:30;4.50;;;2.70;;
34152;SDS011;20426;48.372;10.888;2024-02-26T02:55:01;3.60;;;2.55;;
34152;SDS011;20426;48.372;10.888;2024-02-26T02:55:31;6.15;;;2.67;;
34152;SDS011;20426;48.372;10.888;2024-02-26T02:56:02;3.65;;;2.63;;
34152;SDS011;20426;48.372;10.888;2024-02-26T02:56:33;5.68;;;2.80;;
34152;SDS011;20426;48.372;10.888;2024-02-26T02:57:04;4.22;;;2.55;;
34152;SDS011;20426;48.372;10.888;2024-02-26T02:57:34;4.72;;;2.88;;
34152;SDS011;20426;48.372;10.888;2024-02-26T02:58:11;5.35;;;2.70;;
34152;SDS011;20426;48.372;10.888;2024-02-26T02:58:41;4.20;;;2.35;;
34152;SDS011;20426;48.372;10.888;2024-02-26T02:59:12;3.38;;;2.60;;
34152;SDS011;20426;48.372;10.888;2024-02-26T02:59:43;5.57;;;3.63;;
34152;SDS011;20426;48.372;10.888;2024-02-26T03:00:13;3.65;;;2.65;;
34152;SDS011;20426;48.372;10.888;2024-02-26T03:00:44;3.63;;;2.38;;
34152;SDS011;20426;48.372;10.888;2024-02-26T03:01:15;2.95;;;2.30;;
34152;SDS011;20426;48.372;10.888;2024-02-26T03:01:46;4.80;;;2.97;;
34152;SDS011;20426;48.372;10.888;2024-02-26T03:02:16;2.83;;;2.17;;
34152;SDS011;20426;48.372;10.888;2024-02-26T03:02:47;3.40;;;2.58;;
34152;SDS011;20426;48.372;10.888;2024-02-26T03:03:18;3.88;;;2.63;;
34152;SDS011;20426;48.372;10.888;2024-02-26T03:03:49;3.05;;;2.10;;
34152;SDS011;20426;48.372;10.888;2024-02-26T03:04:21;3.28;;;2.40;;
34152;SDS011;20426;48.372;10.888;2024-02-26T03:04:51;4.03;;;2.50;;